sensor_id;sensor_type;location;lat;lon;timestamp;P1;durP1;ratioP1;P2;durP2;ratioP2
71172;SDS011;58875;51.996;4.504;2023-03-11T00:01:01;2.39;;;1.67;;
71172;SDS011;58875;51.996;4.504;2023-03-11T00:03:26;2.29;;;1.61;;
71172;SDS011;58875;51.996;4.504;2023-03-11T00:05:53;2.40;;;1.66;;
71172;SDS011;58875;51.996;4.504;2023-03-11T00:08:21;2.33;;;1.60;;
71172;SDS011;58875;51.996;4.504;2023-03-11T00:10:55;2.29;;;1.57;;
71172;SDS011;58875;51.996;4.504;2023-03-11T00:13:24;2.31;;;1.60;;
71172;SDS011;58875;51.996;4.504;2023-03-11T00:15:52;2.29;;;1.60;;
71172;SDS011;58875;51.996;4.504;2023-03-11T00:18:22;2.02;;;1.41;;
71172;SDS011;58875;51.996;4.504;2023-03-11T00:20:51;1.99;;;1.39;;
71172;SDS011;58875;51.996;4.504;2023-03-11T00:23:17;2.21;;;1.54;;
71172;SDS011;58875;51.996;4.504;2023-03-11T00:25:43;2.37;;;1.65;;
71172;SDS011;58875;51.996;4.504;2023-03-11T00:28:10;2.41;;;1.69;;
71172;SDS011;58875;51.996;4.504;2023-03-11T00:30:41;2.21;;;1.55;;
71172;SDS011;58875;51.996;4.504;2023-03-11T00:33:10;1.95;;;1.37;;
71172;SDS011;58875;51.996;4.504;2023-03-11T00:35:40;1.96;;;1.37;;
71172;SDS011;58875;51.996;4.504;2023-03-11T00:38:09;1.89;;;1.31;;
71172;SDS011;58875;51.996;4.504;2023-03-11T00:40:39;1.50;;;1.04;;
71172;SDS011;58875;51.996;4.504;2023-03-11T00:43:05;1.72;;;1.21;;
71172;SDS011;58875;51.996;4.504;2023-03-11T00:45:30;2.03;;;1.45;;
71172;SDS011;58875;51.996;4.504;2023-03-11T00:47:56;2.00;;;1.43;;
71172;SDS011;58875;51.996;4.504;2023-03-11T00:50:24;2.05;;;1.46;;
71172;SDS011;58875;51.996;4.504;2023-03-11T00:52:52;2.38;;;1.68;;
71172;SDS011;58875;51.996;4.504;2023-03-11T00:55:20;2.10;;;1.46;;
71172;SDS011;58875;51.996;4.504;2023-03-11T00:57:50;2.21;;;1.55;;
71172;SDS011;58875;51.996;4.504;2023-03-11T01:00:17;2.31;;;1.62;;
71172;SDS011;58875;51.996;4.504;2023-03-11T01:02:44;1.90;;;1.34;;
71172;SDS011;58875;51.996;4.504;2023-03-11T01:05:10;2.11;;;1.48;;
71172;SDS011;58875;51.996;4.504;2023-03-11T01:07:36;2.46;;;1.72;;
71172;SDS011;58875;51.996;4.504;2023-03-11T01:10:02;2.69;;;1.91;;
71172;SDS011;58875;51.996;4.504;2023-03-11T01:12:29;3.34;;;2.41;;
71172;SDS011;58875;51.996;4.504;2023-03-11T01:14:54;2.63;;;1.96;;
71172;SDS011;58875;51.996;4.504;2023-03-11T01:17:20;2.18;;;1.67;;
71172;SDS011;58875;51.996;4.504;2023-03-11T01:19:46;1.99;;;1.54;;
71172;SDS011;58875;51.996;4.504;2023-03-11T01:22:12;2.49;;;1.94;;
71172;SDS011;58875;51.996;4.504;2023-03-11T01:24:38;2.17;;;1.71;;
71172;SDS011;58875;51.996;4.504;2023-03-11T01:27:03;1.73;;;1.35;;
71172;SDS011;58875;51.996;4.504;2023-03-11T01:29:29;1.72;;;1.34;;
71172;SDS011;58875;51.996;4.504;2023-03-11T01:31:54;1.73;;;1.34;;
71172;SDS011;58875;51.996;4.504;2023-03-11T01:34:20;1.80;;;1.39;;
71172;SDS011;58875;51.996;4.504;2023-03-11T01:36:45;1.69;;;1.31;;
71172;SDS011;58875;51.996;4.504;2023-03-11T01:39:11;1.82;;;1.43;;
71172;SDS011;58875;51.996;4.504;2023-03-11T01:41:36;1.94;;;1.52;;
71172;SDS011;58875;51.996;4.504;2023-03-11T01:44:02;2.11;;;1.65;;
71172;SDS011;58875;51.996;4.504;2023-03-11T01:49:02;1.88;;;1.46;;
71172;SDS011;58875;51.996;4.504;2023-03-11T01:51:34;1.81;;;1.38;;
71172;SDS011;58875;51.996;4.504;2023-03-11T01:54:25;2.06;;;1.57;;
71172;SDS011;58875;51.996;4.504;2023-03-11T01:56:54;1.85;;;1.41;;
71172;SDS011;58875;51.996;4.504;2023-03-11T01:59:22;1.90;;;1.44;;
71172;SDS011;58875;51.996;4.504;2023-03-11T02:04:36;1.78;;;1.35;;
71172;SDS011;58875;51.996;4.504;2023-03-11T02:07:05;2.07;;;1.58;;
71172;SDS011;58875;51.996;4.504;2023-03-11T02:09:34;2.09;;;1.55;;
71172;SDS011;58875;51.996;4.504;2023-03-11T02:11:59;2.00;;;1.49;;
71172;SDS011;58875;51.996;4.504;2023-03-11T02:14:26;1.69;;;1.26;;
71172;SDS011;58875;51.996;4.504;2023-03-11T02:16:55;1.78;;;1.34;;
71172;SDS011;58875;51.996;4.504;2023-03-11T02:22:20;1.92;;;1.45;;
71172;SDS011;58875;51.996;4.504;2023-03-11T02:24:53;1.83;;;1.38;;
71172;SDS011;58875;51.996;4.504;2023-03-11T02:27:23;1.89;;;1.41;;
71172;SDS011;58875;51.996;4.504;2023-03-11T02:29:52;2.07;;;1.56;;
71172;SDS011;58875;51.996;4.504;2023-03-11T02:32:20;1.82;;;1.37;;
71172;SDS011;58875;51.996;4.504;2023-03-11T02:34:47;2.29;;;1.71;;
71172;SDS011;58875;51.996;4.504;2023-03-11T02:37:13;2.01;;;1.52;;
71172;SDS011;58875;51.996;4.504;2023-03-11T02:39:42;1.95;;;1.48;;
71172;SDS011;58875;51.996;4.504;2023-03-11T02:42:18;1.90;;;1.44;;
71172;SDS011;58875;51.996;4.504;2023-03-11T02:44:54;1.88;;;1.45;;
71172;SDS011;58875;51.996;4.504;2023-03-11T02:47:25;1.97;;;1.53;;
71172;SDS011;58875;51.996;4.504;2023-03-11T02:49:51;2.02;;;1.58;;
71172;SDS011;58875;51.996;4.504;2023-03-11T02:52:20;1.55;;;1.21;;
71172;SDS011;58875;51.996;4.504;2023-03-11T02:54:46;1.53;;;1.20;;
71172;SDS011;58875;51.996;4.504;2023-03-11T02:57:11;2.00;;;1.55;;
71172;SDS011;58875;51.996;4.504;2023-03-11T02:59:37;1.91;;;1.48;;
71172;SDS011;58875;51.996;4.504;2023-03-11T03:02:02;1.65;;;1.27;;
71172;SDS011;58875;51.996;4.504;2023-03-11T03:04:28;1.64;;;1.27;;
71172;SDS011;58875;51.996;4.504;2023-03-11T03:06:53;1.59;;;1.24;;
71172;SDS011;58875;51.996;4.504;2023-03-11T03:09:19;1.72;;;1.35;;
71172;SDS011;58875;51.996;4.504;2023-03-11T03:11:45;1.69;;;1.34;;
71172;SDS011;58875;51.996;4.504;2023-03-11T03:14:11;1.58;;;1.25;;
71172;SDS011;58875;51.996;4.504;2023-03-11T03:16:36;1.72;;;1.36;;
71172;SDS011;58875;51.996;4.504;2023-03-11T03:19:02;1.74;;;1.37;;
71172;SDS011;58875;51.996;4.504;2023-03-11T03:21:27;1.69;;;1.34;;
71172;SDS011;58875;51.996;4.504;2023-03-11T03:23:53;1.62;;;1.29;;
71172;SDS011;58875;51.996;4.504;2023-03-11T03:26:18;1.47;;;1.16;;
71172;SDS011;58875;51.996;4.504;2023-03-11T03:28:44;1.56;;;1.24;;
71172;SDS011;58875;51.996;4.504;2023-03-11T03:31:09;1.69;;;1.35;;
71172;SDS011;58875;51.996;4.504;2023-03-11T03:33:36;1.67;;;1.36;;
71172;SDS011;58875;51.996;4.504;2023-03-11T03:36:04;1.53;;;1.24;;
71172;SDS011;58875;51.996;4.504;2023-03-11T03:38:34;1.56;;;1.26;;
71172;SDS011;58875;51.996;4.504;2023-03-11T03:41:00;1.95;;;1.57;;
71172;SDS011;58875;51.996;4.504;2023-03-11T03:43:25;2.05;;;1.65;;
71172;SDS011;58875;51.996;4.504;2023-03-11T03:45:58;2.54;;;2.11;;
71172;SDS011;58875;51.996;4.504;2023-03-11T03:48:27;2.34;;;1.98;;
71172;SDS011;58875;51.996;4.504;2023-03-11T03:50:53;2.21;;;1.95;;
71172;SDS011;58875;51.996;4.504;2023-03-11T03:53:19;2.19;;;1.93;;
71172;SDS011;58875;51.996;4.504;2023-03-11T03:55:45;2.45;;;2.15;;
71172;SDS011;58875;51.996;4.504;2023-03-11T03:58:10;2.55;;;2.29;;
71172;SDS011;58875;51.996;4.504;2023-03-11T04:00:36;2.47;;;2.28;;
71172;SDS011;58875;51.996;4.504;2023-03-11T04:03:02;2.41;;;2.28;;
71172;SDS011;58875;51.996;4.504;2023-03-11T04:05:28;2.20;;;2.10;;
71172;SDS011;58875;51.996;4.504;2023-03-11T04:07:53;1.96;;;1.88;;
71172;SDS011;58875;51.996;4.504;2023-03-11T04:10:19;2.15;;;2.05;;
71172;SDS011;58875;51.996;4.504;2023-03-11T04:12:44;2.24;;;2.16;;
71172;SDS011;58875;51.996;4.504;2023-03-11T04:15:10;2.28;;;2.20;;
71172;SDS011;58875;51.996;4.504;2023-03-11T04:17:36;1.85;;;1.84;;
71172;SDS011;58875;51.996;4.504;2023-03-11T04:20:02;2.23;;;2.17;;
71172;SDS011;58875;51.996;4.504;2023-03-11T04:22:32;2.34;;;2.21;;
71172;SDS011;58875;51.996;4.504;2023-03-11T04:24:57;1.94;;;1.91;;
71172;SDS011;58875;51.996;4.504;2023-03-11T04:27:23;2.20;;;2.20;;
71172;SDS011;58875;51.996;4.504;2023-03-11T04:29:48;2.10;;;2.10;;
71172;SDS011;58875;51.996;4.504;2023-03-11T04:32:14;2.22;;;2.21;;
71172;SDS011;58875;51.996;4.504;2023-03-11T04:34:39;1.91;;;1.91;;
71172;SDS011;58875;51.996;4.504;2023-03-11T04:37:05;2.22;;;2.18;;
71172;SDS011;58875;51.996;4.504;2023-03-11T04:39:30;1.89;;;1.85;;
71172;SDS011;58875;51.996;4.504;2023-03-11T04:41:56;2.02;;;2.02;;
71172;SDS011;58875;51.996;4.504;2023-03-11T04:44:21;2.23;;;2.20;;
71172;SDS011;58875;51.996;4.504;2023-03-11T04:46:47;2.33;;;2.29;;
71172;SDS011;58875;51.996;4.504;2023-03-11T04:49:12;2.47;;;2.42;;
71172;SDS011;58875;51.996;4.504;2023-03-11T04:51:38;2.52;;;2.47;;
71172;SDS011;58875;51.996;4.504;2023-03-11T04:54:03;2.66;;;2.61;;
71172;SDS011;58875;51.996;4.504;2023-03-11T04:56:29;2.55;;;2.54;;
71172;SDS011;58875;51.996;4.504;2023-03-11T04:58:54;2.43;;;2.40;;
71172;SDS011;58875;51.996;4.504;2023-03-11T05:01:20;2.60;;;2.57;;
71172;SDS011;58875;51.996;4.504;2023-03-11T05:03:46;2.56;;;2.56;;
71172;SDS011;58875;51.996;4.504;2023-03-11T05:06:11;2.29;;;2.29;;
71172;SDS011;58875;51.996;4.504;2023-03-11T05:08:37;2.29;;;2.29;;
71172;SDS011;58875;51.996;4.504;2023-03-11T05:11:03;2.30;;;2.29;;
71172;SDS011;58875;51.996;4.504;2023-03-11T05:13:28;2.58;;;2.52;;
71172;SDS011;58875;51.996;4.504;2023-03-11T05:15:54;2.63;;;2.55;;
71172;SDS011;58875;51.996;4.504;2023-03-11T05:18:19;2.46;;;2.41;;
71172;SDS011;58875;51.996;4.504;2023-03-11T05:20:45;2.39;;;2.37;;
71172;SDS011;58875;51.996;4.504;2023-03-11T05:23:12;2.21;;;2.20;;
71172;SDS011;58875;51.996;4.504;2023-03-11T05:25:37;2.23;;;2.21;;
71172;SDS011;58875;51.996;4.504;2023-03-11T05:28:03;2.39;;;2.34;;
71172;SDS011;58875;51.996;4.504;2023-03-11T05:30:29;2.33;;;2.28;;
71172;SDS011;58875;51.996;4.504;2023-03-11T05:32:55;2.30;;;2.27;;
71172;SDS011;58875;51.996;4.504;2023-03-11T05:35:21;2.31;;;2.31;;
71172;SDS011;58875;51.996;4.504;2023-03-11T05:37:47;2.10;;;2.10;;
71172;SDS011;58875;51.996;4.504;2023-03-11T05:40:14;2.13;;;2.13;;
71172;SDS011;58875;51.996;4.504;2023-03-11T05:42:40;2.21;;;2.21;;
71172;SDS011;58875;51.996;4.504;2023-03-11T05:45:06;2.17;;;2.17;;
71172;SDS011;58875;51.996;4.504;2023-03-11T05:47:33;2.09;;;2.09;;
71172;SDS011;58875;51.996;4.504;2023-03-11T05:49:59;1.99;;;1.99;;
71172;SDS011;58875;51.996;4.504;2023-03-11T05:52:24;1.94;;;1.94;;
71172;SDS011;58875;51.996;4.504;2023-03-11T05:54:50;1.98;;;1.98;;
71172;SDS011;58875;51.996;4.504;2023-03-11T05:57:17;2.04;;;2.04;;
71172;SDS011;58875;51.996;4.504;2023-03-11T05:59:43;2.20;;;2.18;;
71172;SDS011;58875;51.996;4.504;2023-03-11T06:02:09;2.04;;;2.04;;
71172;SDS011;58875;51.996;4.504;2023-03-11T06:04:35;2.22;;;2.21;;
71172;SDS011;58875;51.996;4.504;2023-03-11T06:07:01;1.92;;;1.92;;
71172;SDS011;58875;51.996;4.504;2023-03-11T06:09:27;2.15;;;2.15;;
71172;SDS011;58875;51.996;4.504;2023-03-11T06:11:52;2.14;;;2.14;;
71172;SDS011;58875;51.996;4.504;2023-03-11T06:14:18;2.36;;;2.36;;
71172;SDS011;58875;51.996;4.504;2023-03-11T06:16:43;2.37;;;2.37;;
71172;SDS011;58875;51.996;4.504;2023-03-11T06:19:09;2.30;;;2.29;;
71172;SDS011;58875;51.996;4.504;2023-03-11T06:21:34;2.50;;;2.46;;
71172;SDS011;58875;51.996;4.504;2023-03-11T06:24:00;2.50;;;2.50;;
71172;SDS011;58875;51.996;4.504;2023-03-11T06:26:26;2.52;;;2.52;;
71172;SDS011;58875;51.996;4.504;2023-03-11T06:28:51;2.55;;;2.53;;
71172;SDS011;58875;51.996;4.504;2023-03-11T06:31:18;3.04;;;3.04;;
71172;SDS011;58875;51.996;4.504;2023-03-11T06:33:46;2.91;;;2.91;;
71172;SDS011;58875;51.996;4.504;2023-03-11T06:36:13;3.59;;;3.59;;
71172;SDS011;58875;51.996;4.504;2023-03-11T06:38:40;3.59;;;3.56;;
71172;SDS011;58875;51.996;4.504;2023-03-11T06:41:06;3.86;;;3.86;;
71172;SDS011;58875;51.996;4.504;2023-03-11T06:43:32;4.17;;;4.17;;
71172;SDS011;58875;51.996;4.504;2023-03-11T06:45:59;4.19;;;4.19;;
71172;SDS011;58875;51.996;4.504;2023-03-11T06:48:25;4.43;;;4.43;;
71172;SDS011;58875;51.996;4.504;2023-03-11T06:50:56;4.73;;;4.73;;
71172;SDS011;58875;51.996;4.504;2023-03-11T06:53:23;4.45;;;4.44;;
71172;SDS011;58875;51.996;4.504;2023-03-11T06:56:03;4.92;;;4.90;;
71172;SDS011;58875;51.996;4.504;2023-03-11T06:58:32;4.83;;;4.81;;
71172;SDS011;58875;51.996;4.504;2023-03-11T07:01:04;4.61;;;4.56;;
71172;SDS011;58875;51.996;4.504;2023-03-11T07:03:32;4.94;;;4.93;;
71172;SDS011;58875;51.996;4.504;2023-03-11T07:05:58;4.61;;;4.61;;
71172;SDS011;58875;51.996;4.504;2023-03-11T07:08:23;4.57;;;4.57;;
71172;SDS011;58875;51.996;4.504;2023-03-11T07:11:00;4.66;;;4.66;;
71172;SDS011;58875;51.996;4.504;2023-03-11T07:13:30;4.61;;;4.61;;
71172;SDS011;58875;51.996;4.504;2023-03-11T07:16:00;4.61;;;4.60;;
71172;SDS011;58875;51.996;4.504;2023-03-11T07:18:33;4.54;;;4.51;;
71172;SDS011;58875;51.996;4.504;2023-03-11T07:21:00;4.29;;;4.29;;
71172;SDS011;58875;51.996;4.504;2023-03-11T07:23:28;4.06;;;4.05;;
71172;SDS011;58875;51.996;4.504;2023-03-11T07:25:53;4.07;;;4.07;;
71172;SDS011;58875;51.996;4.504;2023-03-11T07:28:20;4.01;;;4.01;;
71172;SDS011;58875;51.996;4.504;2023-03-11T07:30:46;4.10;;;4.09;;
71172;SDS011;58875;51.996;4.504;2023-03-11T07:33:12;3.99;;;3.99;;
71172;SDS011;58875;51.996;4.504;2023-03-11T07:35:38;4.14;;;4.14;;
71172;SDS011;58875;51.996;4.504;2023-03-11T07:38:04;4.28;;;4.28;;
71172;SDS011;58875;51.996;4.504;2023-03-11T07:40:29;3.99;;;3.99;;
71172;SDS011;58875;51.996;4.504;2023-03-11T07:42:55;3.37;;;3.37;;
71172;SDS011;58875;51.996;4.504;2023-03-11T07:45:21;3.29;;;3.28;;
71172;SDS011;58875;51.996;4.504;2023-03-11T07:47:47;3.47;;;3.47;;
71172;SDS011;58875;51.996;4.504;2023-03-11T07:50:13;3.59;;;3.59;;
71172;SDS011;58875;51.996;4.504;2023-03-11T07:52:38;3.35;;;3.35;;
71172;SDS011;58875;51.996;4.504;2023-03-11T07:55:04;3.56;;;3.56;;
71172;SDS011;58875;51.996;4.504;2023-03-11T07:57:36;3.46;;;3.46;;
71172;SDS011;58875;51.996;4.504;2023-03-11T08:00:02;3.21;;;3.20;;
71172;SDS011;58875;51.996;4.504;2023-03-11T08:02:27;3.32;;;3.28;;
71172;SDS011;58875;51.996;4.504;2023-03-11T08:04:54;3.34;;;3.31;;
71172;SDS011;58875;51.996;4.504;2023-03-11T08:07:19;2.95;;;2.94;;
71172;SDS011;58875;51.996;4.504;2023-03-11T08:09:45;2.99;;;2.99;;
71172;SDS011;58875;51.996;4.504;2023-03-11T08:12:11;3.04;;;3.04;;
71172;SDS011;58875;51.996;4.504;2023-03-11T08:14:36;2.97;;;2.97;;
71172;SDS011;58875;51.996;4.504;2023-03-11T08:17:04;3.05;;;3.05;;
71172;SDS011;58875;51.996;4.504;2023-03-11T08:19:30;2.97;;;2.97;;
71172;SDS011;58875;51.996;4.504;2023-03-11T08:21:55;3.16;;;3.08;;
71172;SDS011;58875;51.996;4.504;2023-03-11T08:24:21;3.50;;;3.32;;
71172;SDS011;58875;51.996;4.504;2023-03-11T08:26:46;3.58;;;3.43;;
71172;SDS011;58875;51.996;4.504;2023-03-11T08:29:12;3.58;;;3.45;;
71172;SDS011;58875;51.996;4.504;2023-03-11T08:31:38;3.95;;;3.79;;
71172;SDS011;58875;51.996;4.504;2023-03-11T08:34:04;3.77;;;3.57;;
71172;SDS011;58875;51.996;4.504;2023-03-11T08:36:32;3.73;;;3.46;;
71172;SDS011;58875;51.996;4.504;2023-03-11T08:38:58;3.16;;;3.00;;
71172;SDS011;58875;51.996;4.504;2023-03-11T08:41:24;3.18;;;3.01;;
71172;SDS011;58875;51.996;4.504;2023-03-11T08:43:50;3.07;;;2.96;;
71172;SDS011;58875;51.996;4.504;2023-03-11T08:46:24;2.63;;;2.51;;
71172;SDS011;58875;51.996;4.504;2023-03-11T08:48:54;1.97;;;1.84;;
71172;SDS011;58875;51.996;4.504;2023-03-11T08:51:21;1.90;;;1.78;;
71172;SDS011;58875;51.996;4.504;2023-03-11T08:53:49;1.89;;;1.74;;
71172;SDS011;58875;51.996;4.504;2023-03-11T08:56:15;2.38;;;2.14;;
71172;SDS011;58875;51.996;4.504;2023-03-11T08:58:40;2.38;;;2.15;;
71172;SDS011;58875;51.996;4.504;2023-03-11T09:01:06;2.11;;;1.93;;
71172;SDS011;58875;51.996;4.504;2023-03-11T09:03:33;2.24;;;2.03;;
71172;SDS011;58875;51.996;4.504;2023-03-11T09:06:00;2.17;;;1.97;;
71172;SDS011;58875;51.996;4.504;2023-03-11T09:08:28;2.16;;;1.96;;
71172;SDS011;58875;51.996;4.504;2023-03-11T09:10:54;1.94;;;1.74;;
71172;SDS011;58875;51.996;4.504;2023-03-11T09:13:19;1.82;;;1.60;;
71172;SDS011;58875;51.996;4.504;2023-03-11T09:15:46;1.80;;;1.59;;
71172;SDS011;58875;51.996;4.504;2023-03-11T09:18:13;1.60;;;1.40;;
71172;SDS011;58875;51.996;4.504;2023-03-11T09:20:39;1.63;;;1.42;;
71172;SDS011;58875;51.996;4.504;2023-03-11T09:23:06;1.65;;;1.38;;
71172;SDS011;58875;51.996;4.504;2023-03-11T09:25:32;1.78;;;1.47;;
71172;SDS011;58875;51.996;4.504;2023-03-11T09:27:58;1.59;;;1.30;;
71172;SDS011;58875;51.996;4.504;2023-03-11T09:30:23;1.67;;;1.38;;
71172;SDS011;58875;51.996;4.504;2023-03-11T09:32:49;1.66;;;1.40;;
71172;SDS011;58875;51.996;4.504;2023-03-11T09:35:14;1.35;;;1.14;;
71172;SDS011;58875;51.996;4.504;2023-03-11T09:37:40;1.53;;;1.27;;
71172;SDS011;58875;51.996;4.504;2023-03-11T09:40:06;1.60;;;1.30;;
71172;SDS011;58875;51.996;4.504;2023-03-11T09:43:15;1.50;;;1.22;;
71172;SDS011;58875;51.996;4.504;2023-03-11T09:45:41;1.68;;;1.33;;
71172;SDS011;58875;51.996;4.504;2023-03-11T09:48:29;1.85;;;1.46;;
71172;SDS011;58875;51.996;4.504;2023-03-11T09:51:07;1.71;;;1.35;;
71172;SDS011;58875;51.996;4.504;2023-03-11T09:53:42;1.64;;;1.30;;
71172;SDS011;58875;51.996;4.504;2023-03-11T09:56:14;1.77;;;1.39;;
71172;SDS011;58875;51.996;4.504;2023-03-11T09:58:54;1.57;;;1.22;;
71172;SDS011;58875;51.996;4.504;2023-03-11T10:01:27;1.70;;;1.30;;
71172;SDS011;58875;51.996;4.504;2023-03-11T10:04:42;1.92;;;1.46;;
71172;SDS011;58875;51.996;4.504;2023-03-11T10:06:52;2.11;;;1.60;;
71172;SDS011;58875;51.996;4.504;2023-03-11T10:09:26;1.88;;;1.45;;
71172;SDS011;58875;51.996;4.504;2023-03-11T10:12:01;2.04;;;1.52;;
71172;SDS011;58875;51.996;4.504;2023-03-11T10:22:18;1.96;;;1.43;;
71172;SDS011;58875;51.996;4.504;2023-03-11T10:27:48;2.25;;;1.66;;
71172;SDS011;58875;51.996;4.504;2023-03-11T10:30:26;1.99;;;1.49;;
71172;SDS011;58875;51.996;4.504;2023-03-11T10:33:00;2.26;;;1.69;;
71172;SDS011;58875;51.996;4.504;2023-03-11T10:38:14;2.24;;;1.68;;
71172;SDS011;58875;51.996;4.504;2023-03-11T10:40:45;2.30;;;1.72;;
71172;SDS011;58875;51.996;4.504;2023-03-11T10:43:16;2.18;;;1.60;;
71172;SDS011;58875;51.996;4.504;2023-03-11T10:46:06;2.30;;;1.65;;
71172;SDS011;58875;51.996;4.504;2023-03-11T10:48:43;2.63;;;1.92;;
71172;SDS011;58875;51.996;4.504;2023-03-11T10:51:13;2.31;;;1.71;;
71172;SDS011;58875;51.996;4.504;2023-03-11T10:53:48;2.24;;;1.68;;
71172;SDS011;58875;51.996;4.504;2023-03-11T10:56:24;2.39;;;1.80;;
71172;SDS011;58875;51.996;4.504;2023-03-11T10:59:01;1.91;;;1.44;;
71172;SDS011;58875;51.996;4.504;2023-03-11T11:01:30;2.22;;;1.66;;
71172;SDS011;58875;51.996;4.504;2023-03-11T11:03:57;2.01;;;1.50;;
71172;SDS011;58875;51.996;4.504;2023-03-11T11:09:18;1.96;;;1.46;;
71172;SDS011;58875;51.996;4.504;2023-03-11T11:14:48;1.86;;;1.44;;
71172;SDS011;58875;51.996;4.504;2023-03-11T11:17:22;2.12;;;1.68;;
71172;SDS011;58875;51.996;4.504;2023-03-11T11:19:53;2.09;;;1.66;;
71172;SDS011;58875;51.996;4.504;2023-03-11T11:22:22;1.96;;;1.57;;
71172;SDS011;58875;51.996;4.504;2023-03-11T11:24:50;1.74;;;1.41;;
71172;SDS011;58875;51.996;4.504;2023-03-11T11:29:47;1.76;;;1.45;;
71172;SDS011;58875;51.996;4.504;2023-03-11T11:32:34;2.01;;;1.67;;
71172;SDS011;58875;51.996;4.504;2023-03-11T11:35:02;2.06;;;1.71;;
71172;SDS011;58875;51.996;4.504;2023-03-11T11:37:32;1.86;;;1.56;;
71172;SDS011;58875;51.996;4.504;2023-03-11T11:42:35;2.87;;;2.43;;
71172;SDS011;58875;51.996;4.504;2023-03-11T11:45:05;3.15;;;2.76;;
71172;SDS011;58875;51.996;4.504;2023-03-11T11:47:43;2.72;;;2.49;;
71172;SDS011;58875;51.996;4.504;2023-03-11T11:50:19;2.49;;;2.36;;
71172;SDS011;58875;51.996;4.504;2023-03-11T11:52:51;2.49;;;2.36;;
71172;SDS011;58875;51.996;4.504;2023-03-11T11:55:27;2.15;;;2.05;;
71172;SDS011;58875;51.996;4.504;2023-03-11T11:57:55;2.13;;;2.05;;
71172;SDS011;58875;51.996;4.504;2023-03-11T12:00:22;2.30;;;2.19;;
71172;SDS011;58875;51.996;4.504;2023-03-11T12:05:51;2.60;;;2.35;;
71172;SDS011;58875;51.996;4.504;2023-03-11T12:08:30;2.46;;;2.23;;
71172;SDS011;58875;51.996;4.504;2023-03-11T12:11:21;2.32;;;2.14;;
71172;SDS011;58875;51.996;4.504;2023-03-11T12:27:46;2.32;;;2.16;;
71172;SDS011;58875;51.996;4.504;2023-03-11T12:30:19;2.46;;;2.24;;
71172;SDS011;58875;51.996;4.504;2023-03-11T12:33:34;2.52;;;2.28;;
71172;SDS011;58875;51.996;4.504;2023-03-11T12:35:39;2.65;;;2.41;;
71172;SDS011;58875;51.996;4.504;2023-03-11T12:38:27;2.36;;;2.18;;
71172;SDS011;58875;51.996;4.504;2023-03-11T12:50:57;2.11;;;1.97;;
71172;SDS011;58875;51.996;4.504;2023-03-11T12:53:42;2.22;;;2.05;;
71172;SDS011;58875;51.996;4.504;2023-03-11T12:58:58;2.07;;;1.92;;
71172;SDS011;58875;51.996;4.504;2023-03-11T13:12:37;1.89;;;1.74;;
71172;SDS011;58875;51.996;4.504;2023-03-11T13:18:27;1.64;;;1.49;;
71172;SDS011;58875;51.996;4.504;2023-03-11T13:28:20;1.60;;;1.47;;
71172;SDS011;58875;51.996;4.504;2023-03-11T13:33:55;1.89;;;1.77;;
71172;SDS011;58875;51.996;4.504;2023-03-11T13:42:12;1.93;;;1.77;;
71172;SDS011;58875;51.996;4.504;2023-03-11T13:45:02;1.87;;;1.70;;
71172;SDS011;58875;51.996;4.504;2023-03-11T13:47:29;1.81;;;1.64;;
71172;SDS011;58875;51.996;4.504;2023-03-11T13:50:08;1.60;;;1.46;;
71172;SDS011;58875;51.996;4.504;2023-03-11T13:52:48;1.59;;;1.46;;
71172;SDS011;58875;51.996;4.504;2023-03-11T13:55:20;1.75;;;1.59;;
71172;SDS011;58875;51.996;4.504;2023-03-11T13:57:53;1.72;;;1.53;;
71172;SDS011;58875;51.996;4.504;2023-03-11T14:00:21;1.40;;;1.23;;
71172;SDS011;58875;51.996;4.504;2023-03-11T14:02:49;1.34;;;1.18;;
71172;SDS011;58875;51.996;4.504;2023-03-11T14:05:31;1.19;;;1.06;;
71172;SDS011;58875;51.996;4.504;2023-03-11T14:10:52;1.45;;;1.33;;
71172;SDS011;58875;51.996;4.504;2023-03-11T14:13:19;1.37;;;1.28;;
71172;SDS011;58875;51.996;4.504;2023-03-11T14:16:03;1.33;;;1.24;;
71172;SDS011;58875;51.996;4.504;2023-03-11T14:20:59;1.38;;;1.28;;
71172;SDS011;58875;51.996;4.504;2023-03-11T14:23:30;1.31;;;1.21;;
71172;SDS011;58875;51.996;4.504;2023-03-11T14:26:00;1.09;;;1.00;;
71172;SDS011;58875;51.996;4.504;2023-03-11T14:28:32;1.22;;;1.11;;
71172;SDS011;58875;51.996;4.504;2023-03-11T14:31:01;1.24;;;1.12;;
71172;SDS011;58875;51.996;4.504;2023-03-11T14:33:27;1.35;;;1.21;;
71172;SDS011;58875;51.996;4.504;2023-03-11T14:38:25;1.32;;;1.19;;
71172;SDS011;58875;51.996;4.504;2023-03-11T14:40:54;1.37;;;1.24;;
71172;SDS011;58875;51.996;4.504;2023-03-11T14:43:22;1.43;;;1.28;;
71172;SDS011;58875;51.996;4.504;2023-03-11T14:45:48;1.35;;;1.22;;
71172;SDS011;58875;51.996;4.504;2023-03-11T14:50:42;1.31;;;1.18;;
71172;SDS011;58875;51.996;4.504;2023-03-11T14:53:16;1.32;;;1.18;;
71172;SDS011;58875;51.996;4.504;2023-03-11T15:03:25;1.29;;;1.14;;
71172;SDS011;58875;51.996;4.504;2023-03-11T15:05:59;1.29;;;1.15;;
71172;SDS011;58875;51.996;4.504;2023-03-11T15:08:33;1.03;;;0.94;;
71172;SDS011;58875;51.996;4.504;2023-03-11T15:11:07;0.98;;;0.90;;
71172;SDS011;58875;51.996;4.504;2023-03-11T15:13:44;1.01;;;0.92;;
71172;SDS011;58875;51.996;4.504;2023-03-11T15:18:49;1.09;;;0.97;;
71172;SDS011;58875;51.996;4.504;2023-03-11T15:21:16;1.22;;;1.09;;
71172;SDS011;58875;51.996;4.504;2023-03-11T15:23:45;1.19;;;1.05;;
71172;SDS011;58875;51.996;4.504;2023-03-11T15:26:34;1.06;;;0.92;;
71172;SDS011;58875;51.996;4.504;2023-03-11T15:29:01;1.25;;;1.08;;
71172;SDS011;58875;51.996;4.504;2023-03-11T15:31:37;1.09;;;0.94;;
71172;SDS011;58875;51.996;4.504;2023-03-11T15:41:44;1.44;;;1.28;;
71172;SDS011;58875;51.996;4.504;2023-03-11T15:44:22;1.41;;;1.26;;
71172;SDS011;58875;51.996;4.504;2023-03-11T15:46:55;1.13;;;1.02;;
71172;SDS011;58875;51.996;4.504;2023-03-11T15:49:21;1.22;;;1.10;;
71172;SDS011;58875;51.996;4.504;2023-03-11T15:51:46;1.27;;;1.14;;
71172;SDS011;58875;51.996;4.504;2023-03-11T15:54:12;1.21;;;1.10;;
71172;SDS011;58875;51.996;4.504;2023-03-11T15:56:37;1.09;;;1.00;;
71172;SDS011;58875;51.996;4.504;2023-03-11T15:59:04;1.22;;;1.10;;
71172;SDS011;58875;51.996;4.504;2023-03-11T16:01:30;1.10;;;0.99;;
71172;SDS011;58875;51.996;4.504;2023-03-11T16:03:55;1.10;;;0.98;;
71172;SDS011;58875;51.996;4.504;2023-03-11T16:06:21;1.22;;;1.07;;
71172;SDS011;58875;51.996;4.504;2023-03-11T16:08:47;1.43;;;1.24;;
71172;SDS011;58875;51.996;4.504;2023-03-11T16:11:14;1.31;;;1.13;;
71172;SDS011;58875;51.996;4.504;2023-03-11T16:13:40;1.44;;;1.23;;
71172;SDS011;58875;51.996;4.504;2023-03-11T16:16:10;1.67;;;1.43;;
71172;SDS011;58875;51.996;4.504;2023-03-11T16:18:40;1.68;;;1.42;;
71172;SDS011;58875;51.996;4.504;2023-03-11T16:21:07;1.60;;;1.36;;
71172;SDS011;58875;51.996;4.504;2023-03-11T16:23:39;1.31;;;1.10;;
71172;SDS011;58875;51.996;4.504;2023-03-11T16:26:05;1.27;;;1.06;;
71172;SDS011;58875;51.996;4.504;2023-03-11T16:28:35;1.71;;;1.43;;
71172;SDS011;58875;51.996;4.504;2023-03-11T16:31:01;1.45;;;1.19;;
71172;SDS011;58875;51.996;4.504;2023-03-11T16:33:27;1.61;;;1.32;;
71172;SDS011;58875;51.996;4.504;2023-03-11T16:35:53;1.68;;;1.39;;
71172;SDS011;58875;51.996;4.504;2023-03-11T16:38:18;1.56;;;1.28;;
71172;SDS011;58875;51.996;4.504;2023-03-11T16:40:57;1.82;;;1.50;;
71172;SDS011;58875;51.996;4.504;2023-03-11T16:43:27;2.91;;;2.38;;
71172;SDS011;58875;51.996;4.504;2023-03-11T16:45:54;9.73;;;8.60;;
71172;SDS011;58875;51.996;4.504;2023-03-11T16:48:20;30.99;;;28.89;;
71172;SDS011;58875;51.996;4.504;2023-03-11T16:50:46;29.75;;;27.33;;
71172;SDS011;58875;51.996;4.504;2023-03-11T16:53:12;10.44;;;9.77;;
71172;SDS011;58875;51.996;4.504;2023-03-11T16:55:40;4.01;;;3.72;;
71172;SDS011;58875;51.996;4.504;2023-03-11T16:58:06;1.82;;;1.69;;